Time;durP1;ratioP1;P1;durP2;ratioP2;P2;SDS_P1;SDS_P2;PMS_P1;PMS_P2;Temp;Humidity;BMP_temperature;BMP_pressure;BME280_temperature;BME280_humidity;BME280_pressure;Samples;Min_cycle;Max_cycle;Signal;HPM_P1;HPM_P2
2021/08/04 00:00:27;;;;;;;15.15;4.67;;;;;;;16.27;60.78;100471.41;1744819;79;25752;-73
2021/08/04 00:02:54;;;;;;;14.20;5.25;;;;;;;16.24;60.86;100473.84;1752819;79;25748;-74
2021/08/04 00:05:21;;;;;;;9.58;4.90;;;;;;;16.22;60.97;100476.66;1757785;79;25760;-73
2021/08/04 00:07:46;;;;;;;8.58;4.22;;;;;;;16.21;60.99;100480.81;1749130;79;25779;-73
2021/08/04 00:10:14;;;;;;;7.15;3.75;;;;;;;16.19;61.11;100477.36;1748550;79;27374;-73
2021/08/04 00:12:40;;;;;;;12.35;4.90;;;;;;;16.18;61.16;100477.84;1746835;79;26308;-73
2021/08/04 00:15:08;;;;;;;14.70;4.90;;;;;;;16.16;61.29;100474.37;1760885;79;25897;-73
2021/08/04 00:17:34;;;;;;;12.68;5.33;;;;;;;16.15;61.41;100478.53;1756399;79;26618;-73
2021/08/04 00:20:00;;;;;;;13.68;5.12;;;;;;;16.13;61.55;100480.00;1756797;79;25866;-73
2021/08/04 00:22:25;;;;;;;16.82;5.22;;;;;;;16.11;61.60;100487.34;1767865;79;27327;-73
2021/08/04 00:24:55;;;;;;;6.55;4.72;;;;;;;16.10;61.77;100491.51;1782957;79;26300;-74
2021/08/04 00:27:20;;;;;;;6.75;4.12;;;;;;;16.10;61.86;100492.86;1770835;79;25840;-74
2021/08/04 00:29:46;;;;;;;14.30;4.37;;;;;;;16.11;61.90;100486.48;1820808;76;26608;-74
2021/08/04 00:32:12;;;;;;;9.10;5.17;;;;;;;16.10;62.01;100488.80;1840909;76;25758;-73
2021/08/04 00:34:40;;;;;;;11.80;5.72;;;;;;;16.05;62.16;100484.20;1841113;76;27354;-73
2021/08/04 00:37:05;;;;;;;7.90;5.00;;;;;;;16.03;62.22;100483.44;1839534;76;25802;-73
2021/08/04 00:39:35;;;;;;;9.63;4.55;;;;;;;16.00;62.37;100487.70;1839955;76;25759;-73
2021/08/04 00:42:01;;;;;;;8.75;4.80;;;;;;;15.97;62.52;100489.27;1838018;76;25690;-73
2021/08/04 00:44:26;;;;;;;7.08;4.60;;;;;;;15.96;62.68;100496.99;1835879;76;25750;-73
2021/08/04 00:46:53;;;;;;;7.20;4.85;;;;;;;15.97;62.74;100494.67;1837514;76;27981;-74
2021/08/04 00:49:19;;;;;;;8.68;4.33;;;;;;;15.95;62.77;100500.66;1840117;76;25797;-75
2021/08/04 00:51:46;;;;;;;15.60;5.08;;;;;;;15.91;62.85;100501.36;1842484;76;25721;-74
2021/08/04 00:54:12;;;;;;;9.88;4.95;;;;;;;15.88;62.99;100504.27;1821115;76;25852;-74
2021/08/04 00:56:40;;;;;;;11.95;4.75;;;;;;;15.83;63.06;100501.87;1842749;76;25747;-73
2021/08/04 00:59:10;;;;;;;10.98;4.28;;;;;;;15.75;63.12;100493.41;1839666;76;27434;-73
2021/08/04 01:01:56;;;;;;;9.53;5.22;;;;;;;15.79;63.12;100506.23;1835992;76;26125;-73
2021/08/04 01:04:28;;;;;;;13.40;4.60;;;;;;;15.75;63.29;100504.70;1817086;76;25700;-73
2021/08/04 01:07:13;;;;;;;8.33;4.58;;;;;;;15.74;63.31;100498.92;1832646;76;25705;-73
2021/08/04 01:09:52;;;;;;;14.18;4.87;;;;;;;15.70;63.38;100502.31;1842978;75;25732;-73
2021/08/04 01:12:43;;;;;;;10.32;5.15;;;;;;;15.65;63.53;100503.59;1828632;76;27359;-73
2021/08/04 01:15:12;;;;;;;11.20;4.83;;;;;;;15.59;63.65;100503.55;1814461;76;25866;-74
2021/08/04 01:17:43;;;;;;;12.40;5.25;;;;;;;15.53;63.82;100508.84;1841494;76;25706;-73
2021/08/04 01:20:20;;;;;;;10.32;4.92;;;;;;;15.47;63.88;100507.02;1842071;74;26834;-73
2021/08/04 01:23:05;;;;;;;12.15;5.25;;;;;;;15.41;63.97;100504.72;1831259;76;25722;-73
2021/08/04 01:25:45;;;;;;;14.53;5.97;;;;;;;15.35;64.13;100495.67;1836120;75;27280;-73
2021/08/04 01:28:37;;;;;;;8.38;4.75;;;;;;;15.30;64.29;100499.16;1828734;76;25826;-73
2021/08/04 01:31:13;;;;;;;9.10;4.50;;;;;;;15.26;64.41;100495.79;1826769;76;26287;-73
2021/08/04 01:33:45;;;;;;;11.78;5.20;;;;;;;15.22;64.57;100495.13;1805729;78;26777;-73
2021/08/04 01:36:14;;;;;;;7.78;4.37;;;;;;;15.21;64.65;100491.17;1778193;79;26478;-73
2021/08/04 01:38:43;;;;;;;7.65;5.53;;;;;;;15.17;64.76;100485.59;1826614;76;28125;-73
2021/08/04 01:41:14;;;;;;;9.15;5.40;;;;;;;15.23;64.85;100492.81;1821384;76;25719;-73
2021/08/04 01:43:41;;;;;;;8.40;5.30;;;;;;;15.25;64.96;100490.88;1779150;79;25736;-73
2021/08/04 01:46:10;;;;;;;8.88;5.28;;;;;;;15.27;65.08;100490.77;1745741;80;25792;-74
2021/08/04 01:48:41;;;;;;;10.20;5.55;;;;;;;15.28;65.12;100477.66;1753533;79;25718;-74
2021/08/04 01:51:11;;;;;;;9.70;5.47;;;;;;;15.28;65.17;100479.00;1754136;79;27395;-74
2021/08/04 01:53:40;;;;;;;11.08;5.62;;;;;;;15.31;65.18;100481.98;1759568;79;25790;-74
2021/08/04 01:56:08;;;;;;;7.85;5.17;;;;;;;15.31;65.26;100480.64;1746177;79;25780;-74
2021/08/04 01:58:37;;;;;;;13.80;5.25;;;;;;;15.32;65.29;100476.97;1755247;79;25791;-74
2021/08/04 02:01:03;;;;;;;9.83;6.12;;;;;;;15.33;65.38;100476.88;1761639;79;25843;-74
2021/08/04 02:03:28;;;;;;;10.43;5.80;;;;;;;15.36;65.47;100475.80;1765413;79;27429;-74
2021/08/04 02:05:56;;;;;;;10.53;5.60;;;;;;;15.37;65.50;100469.44;1755524;79;26068;-74
2021/08/04 02:08:39;;;;;;;11.97;5.87;;;;;;;15.37;65.54;100466.25;1742030;79;25709;-74
2021/08/04 02:11:23;;;;;;;9.28;5.95;;;;;;;15.37;65.60;100466.73;1767215;79;26404;-74
2021/08/04 02:14:08;;;;;;;7.50;5.35;;;;;;;15.39;65.74;100457.56;1737820;79;25776;-74
2021/08/04 02:17:03;;;;;;;9.13;5.37;;;;;;;15.39;65.82;100457.56;1752544;79;27404;-74
2021/08/04 02:19:55;;;;;;;11.15;5.92;;;;;;;15.41;65.92;100462.86;1735680;79;25823;-74
2021/08/04 02:22:30;;;;;;;7.87;5.53;;;;;;;15.42;65.93;100458.70;1754972;79;25691;-74
2021/08/04 02:25:01;;;;;;;11.28;5.70;;;;;;;15.43;66.06;100453.69;1754321;79;25866;-74
2021/08/04 02:27:29;;;;;;;7.67;6.15;;;;;;;15.44;66.08;100451.86;1752994;79;25822;-74
2021/08/04 02:29:58;;;;;;;11.90;6.22;;;;;;;15.47;66.22;100452.52;1758093;79;27927;-74
2021/08/04 02:32:24;;;;;;;8.55;6.35;;;;;;;15.48;66.25;100450.68;1765793;79;25801;-74
2021/08/04 02:34:50;;;;;;;9.98;5.97;;;;;;;15.50;66.32;100455.02;1768176;79;25859;-74
2021/08/04 02:37:18;;;;;;;10.72;5.50;;;;;;;15.49;66.34;100448.36;1763949;79;25809;-74
2021/08/04 02:39:47;;;;;;;13.80;6.83;;;;;;;15.48;66.31;100447.50;1751191;79;25761;-74
2021/08/04 02:42:13;;;;;;;10.40;5.92;;;;;;;15.45;66.49;100446.84;1741847;79;27422;-73
2021/08/04 02:44:41;;;;;;;9.73;6.15;;;;;;;15.47;66.58;100447.11;1763444;79;25784;-73
2021/08/04 02:47:10;;;;;;;9.93;6.53;;;;;;;15.47;66.60;100447.59;1763926;79;25789;-73
2021/08/04 02:49:38;;;;;;;10.10;6.35;;;;;;;15.48;66.66;100442.58;1765949;79;25834;-74
2021/08/04 02:52:06;;;;;;;8.23;6.33;;;;;;;15.50;66.77;100448.26;1764844;79;25840;-73
2021/08/04 02:54:34;;;;;;;8.45;5.95;;;;;;;15.51;66.86;100444.59;1767219;79;27407;-73
2021/08/04 02:57:03;;;;;;;10.48;6.65;;;;;;;15.54;66.93;100441.69;1761568;79;26518;-73
2021/08/04 02:59:28;;;;;;;10.10;5.65;;;;;;;15.56;66.93;100445.63;1765673;79;25916;-73
2021/08/04 03:01:56;;;;;;;11.80;6.83;;;;;;;15.57;66.97;100444.70;1774731;79;26808;-74
2021/08/04 03:04:22;;;;;;;10.50;6.62;;;;;;;15.59;67.06;100444.11;1758717;79;25843;-73
2021/08/04 03:06:48;;;;;;;15.78;7.55;;;;;;;15.57;67.09;100444.70;1773328;79;27362;-73
2021/08/04 03:09:14;;;;;;;10.00;7.37;;;;;;;15.57;67.27;100450.97;1756540;79;25750;-73
2021/08/04 03:11:42;;;;;;;10.25;7.17;;;;;;;15.56;67.33;100448.34;1756780;79;25886;-73
2021/08/04 03:14:07;;;;;;;9.43;6.42;;;;;;;15.57;67.42;100444.70;1765397;79;25761;-73
2021/08/04 03:16:33;;;;;;;9.55;6.90;;;;;;;15.57;67.43;100445.56;1787935;78;25935;-73
2021/08/04 03:18:59;;;;;;;11.65;7.15;;;;;;;15.54;67.41;100448.44;1796059;78;26865;-73
2021/08/04 03:21:27;;;;;;;11.03;7.78;;;;;;;15.53;67.54;100449.89;1766354;79;25844;-75
2021/08/04 03:23:53;;;;;;;12.93;7.33;;;;;;;15.55;67.69;100449.30;1775185;79;25804;-74
2021/08/04 03:26:20;;;;;;;11.05;7.50;;;;;;;15.56;67.76;100449.69;1784622;78;25834;-74
2021/08/04 03:28:48;;;;;;;10.98;8.25;;;;;;;15.57;67.82;100450.10;1801010;78;25842;-74
2021/08/04 03:31:16;;;;;;;13.55;8.03;;;;;;;15.58;67.83;100454.05;1794889;78;27394;-74
2021/08/04 03:33:44;;;;;;;10.75;7.47;;;;;;;15.60;67.98;100453.95;1788339;78;25714;-74
2021/08/04 03:36:14;;;;;;;10.68;7.28;;;;;;;15.61;67.98;100460.19;1791501;78;25904;-74
2021/08/04 03:38:40;;;;;;;27.98;7.85;;;;;;;15.61;68.07;100456.13;1829054;76;25849;-74
2021/08/04 03:41:07;;;;;;;11.95;8.13;;;;;;;15.61;68.11;100451.59;1827062;76;25786;-74
2021/08/04 03:43:33;;;;;;;9.03;7.12;;;;;;;15.63;68.23;100458.25;1832719;76;27346;-74
2021/08/04 03:46:01;;;;;;;8.88;6.58;;;;;;;15.64;68.30;100455.92;1838140;76;25822;-74
2021/08/04 03:48:28;;;;;;;9.63;7.05;;;;;;;15.67;68.31;100457.07;1831402;76;26623;-74
2021/08/04 03:50:56;;;;;;;11.60;7.05;;;;;;;15.67;68.34;100455.23;1818374;76;26588;-74
2021/08/04 03:53:22;;;;;;;11.38;7.42;;;;;;;15.68;68.38;100455.62;1828276;76;25866;-74
2021/08/04 03:55:50;;;;;;;12.63;7.62;;;;;;;15.67;68.52;100461.98;1836512;76;27996;-74
2021/08/04 03:58:16;;;;;;;10.40;6.03;;;;;;;15.68;68.56;100454.27;1829255;76;25911;-74
2021/08/04 04:00:43;;;;;;;12.85;6.83;;;;;;;15.71;68.65;100457.25;1836001;76;25777;-74
2021/08/04 04:03:09;;;;;;;15.45;6.75;;;;;;;15.74;68.73;100452.98;1827111;76;25762;-74
2021/08/04 04:05:37;;;;;;;13.55;7.05;;;;;;;15.76;68.69;100450.56;1824655;76;26506;-74
2021/08/04 04:08:05;;;;;;;9.38;6.70;;;;;;;15.76;68.79;100455.97;1787151;78;27467;-74
2021/08/04 04:10:32;;;;;;;9.88;7.10;;;;;;;15.74;69.01;100457.91;1773474;78;26386;-74
2021/08/04 04:12:59;;;;;;;13.43;6.97;;;;;;;15.76;69.06;100458.66;1787482;78;25732;-74
2021/08/04 04:15:27;;;;;;;8.00;6.33;;;;;;;15.75;69.11;100459.64;1740972;79;26442;-74
2021/08/04 04:17:53;;;;;;;10.63;6.58;;;;;;;15.76;69.11;100461.85;1777275;79;25727;-75
2021/08/04 04:20:21;;;;;;;12.60;7.67;;;;;;;15.76;69.30;100461.38;1780227;78;27455;-75
2021/08/04 04:22:47;;;;;;;8.73;6.33;;;;;;;15.78;69.25;100472.94;1766278;79;26205;-75
2021/08/04 04:25:17;;;;;;;8.75;6.90;;;;;;;15.79;69.22;100470.62;1774440;79;26484;-75
2021/08/04 04:27:45;;;;;;;11.08;6.65;;;;;;;15.81;69.28;100470.52;1825780;76;25817;-75
2021/08/04 04:30:13;;;;;;;13.08;6.95;;;;;;;15.77;69.36;100464.45;1831408;76;26336;-75
2021/08/04 04:32:38;;;;;;;8.83;6.28;;;;;;;15.78;69.51;100464.83;1837510;76;27354;-74
2021/08/04 04:35:05;;;;;;;10.50;6.85;;;;;;;15.78;69.51;100471.59;1841376;76;25655;-75
2021/08/04 04:37:32;;;;;;;9.30;6.45;;;;;;;15.78;69.58;100479.70;1839473;76;26380;-75
2021/08/04 04:39:58;;;;;;;9.50;6.72;;;;;;;15.79;69.63;100471.97;1841950;76;26329;-75
2021/08/04 04:42:24;;;;;;;10.45;6.78;;;;;;;15.81;69.61;100484.03;1820671;76;26390;-75
2021/08/04 04:44:49;;;;;;;10.43;6.33;;;;;;;15.82;69.71;100482.58;1849117;76;27353;-75
2021/08/04 04:47:15;;;;;;;11.53;7.17;;;;;;;15.83;69.70;100478.91;1838603;76;25746;-75
2021/08/04 04:49:43;;;;;;;8.83;6.62;;;;;;;15.84;69.73;100486.52;1832880;76;25514;-75
2021/08/04 04:52:10;;;;;;;8.70;6.72;;;;;;;15.86;69.79;100481.88;1841401;76;25729;-75
2021/08/04 04:54:38;;;;;;;11.25;6.28;;;;;;;15.89;69.78;100488.43;1841985;76;26685;-75
2021/08/04 04:57:05;;;;;;;6.72;5.45;;;;;;;15.90;69.80;100483.41;1836837;76;27480;-75
2021/08/04 04:59:34;;;;;;;11.05;6.28;;;;;;;15.93;69.86;100489.09;1819939;75;26104;-75
2021/08/04 05:01:59;;;;;;;12.43;5.80;;;;;;;15.93;69.85;100479.62;1843512;76;25682;-76
2021/08/04 05:04:25;;;;;;;10.25;6.33;;;;;;;16.02;69.85;100492.03;1828774;76;26325;-76
2021/08/04 05:06:53;;;;;;;7.90;5.97;;;;;;;16.05;69.86;100495.02;1836905;76;26410;-77
2021/08/04 05:09:20;;;;;;;8.28;5.53;;;;;;;16.11;69.91;100494.59;1831830;76;27456;-77
2021/08/04 05:11:48;;;;;;;8.90;5.60;;;;;;;16.14;69.98;100499.79;1833354;76;26354;-76
2021/08/04 05:14:13;;;;;;;12.05;5.62;;;;;;;16.21;69.94;100497.05;1843455;76;25684;-77
2021/08/04 05:16:41;;;;;;;9.63;5.35;;;;;;;16.25;69.92;100495.86;1841631;76;25757;-77
2021/08/04 05:19:08;;;;;;;6.87;5.42;;;;;;;16.33;69.87;100498.03;1839204;76;25811;-75
2021/08/04 05:21:36;;;;;;;7.55;5.78;;;;;;;16.37;69.86;100494.14;1830722;76;27404;-75
2021/08/04 05:24:05;;;;;;;11.70;6.33;;;;;;;16.44;69.79;100502.20;1840608;76;25791;-75
2021/08/04 05:26:31;;;;;;;8.25;5.42;;;;;;;16.50;69.84;100501.30;1840957;76;25906;-75
2021/08/04 05:28:59;;;;;;;20.77;6.85;;;;;;;16.58;69.77;100502.59;1814045;76;26498;-75
2021/08/04 05:31:25;;;;;;;11.10;5.95;;;;;;;16.66;69.68;100507.02;1848710;74;25800;-74
2021/08/04 05:33:51;;;;;;;10.25;7.03;;;;;;;16.69;69.62;100503.59;1837804;76;27329;-74
2021/08/04 05:36:18;;;;;;;11.10;6.92;;;;;;;16.77;69.67;100511.17;1842433;76;26412;-75
2021/08/04 05:38:45;;;;;;;13.45;6.70;;;;;;;16.83;69.54;100514.80;1789147;78;25880;-75
2021/08/04 05:41:13;;;;;;;14.70;7.47;;;;;;;16.87;69.55;100519.02;1774303;79;25795;-75
2021/08/04 05:43:40;;;;;;;12.00;7.20;;;;;;;16.92;69.58;100519.55;1789620;78;25718;-75
2021/08/04 05:46:07;;;;;;;18.32;8.25;;;;;;;17.00;69.48;100514.95;1771288;79;27437;-75
2021/08/04 05:48:35;;;;;;;19.52;7.80;;;;;;;16.99;69.39;100517.27;1781664;78;25868;-76
2021/08/04 05:51:02;;;;;;;10.85;6.85;;;;;;;17.02;69.42;100521.12;1784647;78;26365;-75
2021/08/04 05:53:30;;;;;;;14.07;6.97;;;;;;;17.05;69.42;100519.05;1824536;76;25895;-75
2021/08/04 05:55:55;;;;;;;14.10;7.40;;;;;;;17.02;69.28;100524.69;1826861;76;25678;-75
2021/08/04 05:58:23;;;;;;;13.45;7.20;;;;;;;17.01;69.33;100522.96;1832391;76;27331;-74
2021/08/04 06:00:49;;;;;;;14.23;6.92;;;;;;;17.04;69.35;100528.16;1824077;76;25703;-74
2021/08/04 06:03:16;;;;;;;13.08;7.50;;;;;;;17.07;69.44;100529.29;1833915;76;25784;-74
2021/08/04 06:05:45;;;;;;;16.45;6.67;;;;;;;17.10;69.41;100524.14;1832580;76;26578;-75
2021/08/04 06:08:11;;;;;;;19.40;7.97;;;;;;;17.16;69.46;100529.98;1823656;76;25737;-74
2021/08/04 06:10:38;;;;;;;17.60;8.70;;;;;;;17.23;69.40;100530.40;1822305;76;27539;-74
2021/08/04 06:13:04;;;;;;;23.85;9.43;;;;;;;17.24;69.26;100536.68;1831464;76;25991;-74
2021/08/04 06:15:31;;;;;;;26.25;9.60;;;;;;;17.18;69.19;100535.28;1810149;76;25741;-74
2021/08/04 06:18:00;;;;;;;22.13;9.90;;;;;;;17.13;69.31;100540.16;1830712;76;25868;-73
2021/08/04 06:20:26;;;;;;;19.02;8.75;;;;;;;17.11;69.29;100541.63;1824151;76;25782;-74
2021/08/04 06:22:54;;;;;;;13.03;8.95;;;;;;;17.12;69.27;100535.23;1828683;76;27321;-72
2021/08/04 06:25:20;;;;;;;20.40;10.23;;;;;;;17.09;69.15;100543.59;1828615;75;25691;-73
2021/08/04 06:27:46;;;;;;;20.55;9.63;;;;;;;17.06;69.21;100548.36;1827268;76;26031;-73
2021/08/04 06:30:15;;;;;;;21.20;9.38;;;;;;;17.04;69.23;100540.34;1836525;76;25684;-73
2021/08/04 06:32:43;;;;;;;19.42;9.93;;;;;;;17.07;69.26;100548.25;1789123;78;25795;-73
2021/08/04 06:35:11;;;;;;;13.03;9.03;;;;;;;17.11;69.23;100548.89;1776964;79;26856;-74
2021/08/04 06:37:38;;;;;;;18.32;9.23;;;;;;;17.14;69.31;100550.02;1778773;79;25768;-74
2021/08/04 06:40:06;;;;;;;14.83;8.88;;;;;;;17.22;69.27;100549.47;1770029;79;25843;-74
2021/08/04 06:42:33;;;;;;;18.15;8.85;;;;;;;17.28;69.18;100555.80;1831762;76;25725;-74
2021/08/04 06:44:59;;;;;;;16.00;8.53;;;;;;;17.34;69.20;100549.45;1836072;76;25716;-73
2021/08/04 06:47:28;;;;;;;21.40;9.55;;;;;;;17.44;69.15;100548.28;1834025;76;28195;-73
2021/08/04 06:49:54;;;;;;;26.40;8.13;;;;;;;17.52;69.13;100543.16;1829493;76;26549;-74
2021/08/04 06:52:19;;;;;;;26.12;8.15;;;;;;;17.62;69.04;100551.48;1838033;76;25709;-74
2021/08/04 06:54:47;;;;;;;16.85;9.30;;;;;;;17.67;68.93;100549.33;1835650;76;26431;-74
2021/08/04 06:57:15;;;;;;;16.07;8.88;;;;;;;17.71;68.93;100548.98;1835526;76;25818;-74
2021/08/04 06:59:41;;;;;;;24.23;9.33;;;;;;;17.80;68.96;100554.21;1839516;75;27988;-74
2021/08/04 07:02:07;;;;;;;20.90;8.18;;;;;;;17.84;68.72;100557.94;1835874;76;26132;-74
2021/08/04 07:04:34;;;;;;;19.35;9.05;;;;;;;17.84;68.76;100556.58;1835003;76;25768;-74
2021/08/04 07:07:06;;;;;;;31.73;15.72;;;;;;;17.88;68.76;100555.86;1838617;75;25834;-74
2021/08/04 07:09:36;;;;;;;32.67;14.78;;;;;;;17.93;68.62;100562.30;1833039;76;25837;-74
2021/08/04 07:12:05;;;;;;;18.37;8.90;;;;;;;17.93;68.57;100559.58;1764606;79;27328;-74
2021/08/04 07:14:31;;;;;;;9.40;7.80;;;;;;;17.94;68.63;100565.38;1785749;78;25739;-74
2021/08/04 07:17:00;;;;;;;14.40;8.53;;;;;;;17.98;68.60;100565.03;1761258;79;25976;-75
2021/08/04 07:19:27;;;;;;;13.28;8.35;;;;;;;18.01;68.54;100565.30;1835889;75;25759;-74
2021/08/04 07:21:54;;;;;;;13.08;8.70;;;;;;;18.07;68.60;100572.48;1827625;76;25803;-77
2021/08/04 07:24:20;;;;;;;12.23;8.55;;;;;;;18.12;68.56;100570.77;1835127;76;28239;-76
2021/08/04 07:26:46;;;;;;;13.25;8.58;;;;;;;18.16;68.49;100574.98;1813704;76;25758;-76
2021/08/04 07:29:15;;;;;;;15.80;9.48;;;;;;;18.24;68.56;100573.02;1828598;75;25824;-75
2021/08/04 07:31:43;;;;;;;22.25;9.53;;;;;;;18.25;68.29;100573.39;1833610;76;25823;-75
2021/08/04 07:34:11;;;;;;;12.15;8.88;;;;;;;18.21;68.31;100573.25;1845884;76;25676;-76
2021/08/04 07:36:37;;;;;;;12.03;8.58;;;;;;;18.32;68.40;100579.58;1842192;76;27248;-73
2021/08/04 07:39:05;;;;;;;13.25;9.33;;;;;;;18.35;68.25;100580.70;1841836;76;26235;-74
2021/08/04 07:41:31;;;;;;;15.78;8.93;;;;;;;18.42;68.24;100583.81;1827283;76;25701;-74
2021/08/04 07:43:57;;;;;;;22.85;9.20;;;;;;;18.36;67.96;100574.78;1846909;76;25845;-75
2021/08/04 07:46:24;;;;;;;16.45;9.28;;;;;;;18.41;68.07;100573.45;1842292;76;25703;-74
2021/08/04 07:48:50;;;;;;;16.80;8.60;;;;;;;18.48;67.93;100577.42;1842792;76;27381;-74
2021/08/04 07:51:17;;;;;;;14.10;9.33;;;;;;;18.54;67.94;100574.72;1839423;76;25667;-76
2021/08/04 07:53:44;;;;;;;16.07;8.50;;;;;;;18.58;67.85;100574.86;1844007;76;25676;-76
2021/08/04 07:56:10;;;;;;;15.68;8.75;;;;;;;18.65;67.82;100572.56;1844927;76;25703;-77
2021/08/04 07:58:37;;;;;;;14.00;8.35;;;;;;;18.74;67.65;100574.56;1847005;76;25723;-75
2021/08/04 08:01:04;;;;;;;11.73;9.20;;;;;;;18.78;67.54;100577.41;1847512;76;27446;-75
2021/08/04 08:03:29;;;;;;;15.08;8.18;;;;;;;18.86;67.39;100577.67;1835463;76;25766;-75
2021/08/04 08:05:55;;;;;;;11.05;8.45;;;;;;;18.77;67.16;100575.67;1847723;76;25791;-75
2021/08/04 08:08:22;;;;;;;17.02;8.60;;;;;;;18.81;67.27;100577.17;1845807;76;26320;-74
2021/08/04 08:10:51;;;;;;;12.10;8.55;;;;;;;18.83;67.11;100580.63;1834740;76;26444;-75
2021/08/04 08:13:20;;;;;;;9.33;7.92;;;;;;;18.84;66.97;100574.70;1824173;76;33353;-75
2021/08/04 08:15:48;;;;;;;17.62;8.33;;;;;;;18.87;66.90;100570.39;1847241;76;25711;-75
2021/08/04 08:18:16;;;;;;;13.28;7.33;;;;;;;18.78;66.63;100568.77;1837913;76;26409;-75
2021/08/04 08:20:43;;;;;;;13.70;8.43;;;;;;;18.81;66.69;100572.59;1846918;76;25779;-75
2021/08/04 08:23:11;;;;;;;13.15;7.83;;;;;;;18.79;66.58;100570.50;1833848;76;25794;-75
2021/08/04 08:25:39;;;;;;;13.90;6.78;;;;;;;18.82;66.52;100574.82;1857133;74;28094;-75
2021/08/04 08:28:06;;;;;;;8.45;7.33;;;;;;;18.80;66.36;100565.93;1850593;76;25710;-75
2021/08/04 08:30:35;;;;;;;11.60;7.25;;;;;;;18.81;66.28;100561.73;1841916;76;25597;-75
2021/08/04 08:33:01;;;;;;;14.28;7.53;;;;;;;18.88;66.24;100569.40;1830211;76;26395;-75
2021/08/04 08:35:30;;;;;;;20.92;7.42;;;;;;;18.87;66.17;100563.11;1840216;76;25655;-74
2021/08/04 08:37:57;;;;;;;16.40;8.93;;;;;;;18.92;66.15;100566.32;1841561;76;28106;-75
2021/08/04 08:40:26;;;;;;;10.58;6.75;;;;;;;19.05;66.11;100570.28;1840822;76;25742;-75
2021/08/04 08:42:53;;;;;;;8.58;5.85;;;;;;;19.23;66.04;100566.59;1830173;76;26376;-75
2021/08/04 08:45:22;;;;;;;6.85;5.35;;;;;;;19.41;66.03;100556.94;1839969;76;25849;-75
2021/08/04 08:47:49;;;;;;;8.38;5.10;;;;;;;19.68;65.66;100562.87;1834012;76;26574;-75
2021/08/04 08:50:25;;;;;;;14.55;4.70;;;;;;;19.84;65.56;100559.74;1839789;76;27380;-76
2021/08/04 08:52:50;;;;;;;6.20;4.33;;;;;;;20.06;65.32;100565.61;1837423;76;26027;-76
2021/08/04 08:55:16;;;;;;;6.47;4.37;;;;;;;20.21;64.82;100562.09;1836178;76;25661;-75
2021/08/04 08:57:43;;;;;;;7.37;4.67;;;;;;;20.23;64.60;100556.88;1841633;76;26444;-75
2021/08/04 09:00:13;;;;;;;8.18;4.42;;;;;;;20.33;64.15;100550.16;1832728;76;25791;-75
2021/08/04 09:02:42;;;;;;;12.13;4.17;;;;;;;20.32;63.93;100556.59;1833297;76;27357;-76
2021/08/04 09:05:12;;;;;;;5.78;3.90;;;;;;;20.55;63.99;100554.66;1833492;76;25741;-76
2021/08/04 09:07:43;;;;;;;6.53;3.80;;;;;;;20.68;63.55;100537.62;1843057;76;25668;-75
2021/08/04 09:10:31;;;;;;;12.40;4.08;;;;;;;20.91;63.25;100554.14;1835791;76;26864;-77
2021/08/04 09:13:02;;;;;;;11.08;4.75;;;;;;;21.04;63.34;100527.53;1834184;76;25773;-76
2021/08/04 09:15:34;;;;;;;7.58;3.90;;;;;;;21.38;62.56;100553.17;1830759;76;27794;-75
2021/08/04 09:18:07;;;;;;;12.25;4.35;;;;;;;21.41;62.28;100544.72;1840476;76;25688;-75
2021/08/04 09:20:57;;;;;;;5.90;3.55;;;;;;;21.49;61.91;100546.25;1817180;76;25758;-77
2021/08/04 09:23:24;;;;;;;7.05;4.28;;;;;;;21.64;61.89;100546.23;1817922;76;25884;-75
2021/08/04 09:26:14;;;;;;;8.75;3.98;;;;;;;21.71;61.16;100545.16;1836600;76;25647;-74
2021/08/04 09:29:05;;;;;;;8.05;3.80;;;;;;;21.63;60.87;100546.36;1832024;75;27288;-73
2021/08/04 09:31:51;;;;;;;10.58;4.15;;;;;;;21.63;60.54;100540.91;1854340;74;26452;-74
2021/08/04 09:34:39;;;;;;;7.25;4.22;;;;;;;21.55;60.16;100543.47;1840325;76;25746;-74
2021/08/04 09:37:12;;;;;;;6.00;3.62;;;;;;;21.58;60.04;100538.60;1838164;76;25810;-74
2021/08/04 09:39:45;;;;;;;14.73;3.85;;;;;;;21.76;59.86;100533.83;1828837;76;25816;-75
2021/08/04 09:42:13;;;;;;;5.28;4.10;;;;;;;21.88;59.73;100538.16;1814778;76;28157;-75
2021/08/04 09:44:57;;;;;;;11.08;4.33;;;;;;;22.04;59.51;100539.86;1833437;76;25710;-75
2021/08/04 09:47:27;;;;;;;10.98;3.90;;;;;;;22.13;59.23;100536.27;1836413;76;25778;-75
2021/08/04 09:50:00;;;;;;;9.10;3.92;;;;;;;22.23;58.94;100539.87;1829869;76;25620;-75
2021/08/04 09:52:31;;;;;;;8.68;3.60;;;;;;;22.31;58.73;100533.19;1812967;76;26045;-75
2021/08/04 09:55:16;;;;;;;10.03;3.92;;;;;;;22.33;58.50;100531.67;1840861;76;28592;-75
2021/08/04 09:57:47;;;;;;;11.80;3.58;;;;;;;22.33;58.12;100527.08;1842101;76;25688;-75
2021/08/04 10:00:19;;;;;;;8.53;4.37;;;;;;;22.28;57.83;100526.64;1839171;76;25762;-73
2021/08/04 10:02:47;;;;;;;7.85;4.00;;;;;;;22.25;57.89;100528.30;1832187;76;25764;-74
2021/08/04 10:05:28;;;;;;;13.75;4.05;;;;;;;22.32;57.57;100525.86;1828275;76;25941;-73
2021/08/04 10:08:06;;;;;;;7.92;3.83;;;;;;;22.35;57.63;100525.06;1756508;78;27383;-74
2021/08/04 10:10:43;;;;;;;6.05;3.87;;;;;;;22.51;57.58;100525.83;1788654;78;30445;-74
2021/08/04 10:13:14;;;;;;;16.00;4.30;;;;;;;22.61;57.33;100524.45;1783253;78;25895;-74
2021/08/04 10:15:44;;;;;;;4.78;3.20;;;;;;;22.61;57.05;100525.31;1755344;79;32497;-75
2021/08/04 10:18:17;;;;;;;11.00;3.70;;;;;;;22.57;56.94;100527.98;1772740;79;25742;-74
2021/08/04 10:20:50;;;;;;;7.70;3.27;;;;;;;22.53;56.42;100525.69;1787779;78;28023;-74
2021/08/04 10:23:18;;;;;;;10.82;3.87;;;;;;;22.25;56.48;100479.66;1767584;79;25762;-74
2021/08/04 10:25:47;;;;;;;5.28;2.80;;;;;;;22.52;56.17;100519.87;1776402;79;25815;-74
2021/08/04 10:28:15;;;;;;;6.60;2.55;;;;;;;22.44;55.96;100518.37;1771753;79;26438;-67
2021/08/04 10:30:48;;;;;;;3.77;2.45;;;;;;;22.38;55.80;100524.41;1771639;79;25682;-67
2021/08/04 10:33:19;;;;;;;4.70;2.45;;;;;;;22.45;55.84;100520.95;1754716;79;28200;-68
2021/08/04 10:35:53;;;;;;;9.50;2.45;;;;;;;22.54;55.71;100520.58;1769543;79;25824;-69
2021/08/04 10:38:23;;;;;;;7.65;2.70;;;;;;;22.65;55.53;100521.78;1776043;79;26127;-68
2021/08/04 10:41:18;;;;;;;11.38;2.98;;;;;;;22.54;54.96;100515.98;1802320;78;26499;-69
2021/08/04 10:43:57;;;;;;;7.83;2.47;;;;;;;22.51;55.01;100515.41;1783325;78;25826;-69
2021/08/04 10:46:36;;;;;;;5.92;2.35;;;;;;;22.52;54.86;100522.09;1783870;78;28065;-69
2021/08/04 10:49:10;;;;;;;4.60;2.50;;;;;;;22.49;54.55;100509.23;1747026;79;26404;-68
2021/08/04 10:51:43;;;;;;;4.65;2.17;;;;;;;22.39;54.36;100509.75;1764665;79;25877;-66
2021/08/04 10:54:17;;;;;;;8.53;2.40;;;;;;;22.42;54.44;100507.59;1765480;79;25846;-68
2021/08/04 10:56:49;;;;;;;8.25;2.37;;;;;;;22.46;54.23;100503.56;1768687;79;25678;-66
2021/08/04 10:59:22;;;;;;;4.00;2.50;;;;;;;22.53;54.07;100503.33;1761835;79;28039;-68
2021/08/04 11:01:50;;;;;;;7.17;2.33;;;;;;;22.58;53.74;100496.92;1767019;79;26327;-69
2021/08/04 11:04:32;;;;;;;5.60;2.25;;;;;;;22.58;53.51;100499.66;1763811;79;26306;-70
2021/08/04 11:07:16;;;;;;;8.95;2.25;;;;;;;22.78;53.61;100495.51;1760212;79;25856;-67
2021/08/04 11:09:56;;;;;;;3.80;1.60;;;;;;;23.14;53.44;100488.36;1760870;79;26457;-67
2021/08/04 11:12:43;;;;;;;7.37;2.12;;;;;;;23.53;52.92;100491.71;1753329;79;27455;-67
2021/08/04 11:15:29;;;;;;;7.65;2.33;;;;;;;23.82;52.54;100491.55;1763790;79;26331;-67
2021/08/04 11:18:05;;;;;;;4.85;2.42;;;;;;;24.16;52.35;100486.23;1755972;79;26473;-68
2021/08/04 11:20:35;;;;;;;3.58;2.05;;;;;;;24.48;51.88;100485.67;1760260;79;25764;-68
2021/08/04 11:23:05;;;;;;;6.37;2.22;;;;;;;24.65;51.61;100484.77;1766646;79;26364;-69
2021/08/04 11:25:38;;;;;;;10.75;5.40;;;;;;;24.81;51.19;100487.61;1760086;79;27457;-67
2021/08/04 11:28:17;;;;;;;3.50;2.40;;;;;;;25.07;51.08;100486.77;1763823;79;25709;-70
2021/08/04 11:30:51;;;;;;;2.10;1.72;;;;;;;25.17;50.45;100480.13;1760075;79;25970;-68